createdAt,value
2023-01-20T00:02:03.586Z,9.3
2023-01-20T00:04:09.788Z,8.6
2023-01-20T00:06:13.526Z,8.5
2023-01-20T00:08:17.173Z,8.4
2023-01-20T00:10:23.335Z,7.6
2023-01-20T00:12:26.989Z,8.9
2023-01-20T00:14:30.628Z,7.8
2023-01-20T00:16:36.911Z,8.3
2023-01-20T00:26:57.950Z,9
2023-01-20T00:31:08.019Z,7.9
2023-01-20T00:35:17.967Z,8.5
2023-01-20T00:39:25.274Z,8
2023-01-20T00:46:41.037Z,8.8
2023-01-20T00:48:44.728Z,8.9
2023-01-20T00:50:50.994Z,8.7
2023-01-20T00:52:54.770Z,9.8
2023-01-20T00:54:58.382Z,10
2023-01-20T00:57:04.663Z,9.6
2023-01-20T00:59:08.402Z,9.1
2023-01-20T01:01:12.342Z,7.4
2023-01-20T01:03:18.461Z,8.2
2023-01-20T01:05:22.092Z,8
2023-01-20T01:07:25.842Z,7.9
2023-01-20T01:09:32.011Z,7.6
2023-01-20T01:11:35.712Z,8.3
2023-01-20T01:13:39.463Z,8.2
2023-01-20T01:15:45.683Z,9.1
2023-01-20T01:17:49.430Z,8.9
2023-01-20T01:19:53.173Z,9.7
2023-01-20T01:21:59.441Z,9.2
2023-01-20T01:24:03.209Z,7.9
2023-01-20T01:26:06.971Z,8
2023-01-20T01:28:13.246Z,7.7
2023-01-20T01:30:16.889Z,8
2023-01-20T01:32:20.610Z,8.7
2023-01-20T01:34:26.815Z,8.7
2023-01-20T01:36:30.611Z,9.3
2023-01-20T01:43:38.639Z,-1
2023-01-20T01:45:47.620Z,9.8
2023-01-20T01:47:51.233Z,12.1
2023-01-20T01:57:07.356Z,14.2
2023-01-20T02:05:27.369Z,15.2
2023-01-20T02:07:31.092Z,14.7
2023-01-20T02:09:34.836Z,14.7
2023-01-20T02:11:41.104Z,16.1
2023-01-20T02:13:44.852Z,16.2
2023-01-20T02:15:48.490Z,16.1
2023-01-20T02:17:54.776Z,17.8
2023-01-20T02:22:02.167Z,18
2023-01-20T02:24:08.415Z,18.4
2023-01-20T02:28:15.835Z,19.8
2023-01-20T02:30:22.138Z,19.1
2023-01-20T02:32:25.839Z,18.6
2023-01-20T02:34:29.575Z,17.9
2023-01-20T02:36:35.831Z,16.5
2023-01-20T02:38:39.522Z,19.9
2023-01-20T02:40:43.279Z,17.9
2023-01-20T02:44:53.304Z,21.1
2023-01-20T02:46:56.976Z,19.5
2023-01-20T02:51:06.893Z,17.9
2023-01-20T02:53:10.637Z,17.7
2023-01-20T02:55:17.053Z,20
2023-01-20T02:57:20.545Z,17.6
2023-01-20T02:59:24.312Z,20.5
2023-01-20T03:01:30.669Z,17.3
2023-01-20T03:03:34.359Z,16.1
2023-01-20T03:05:38.138Z,17.5
2023-01-20T03:07:44.320Z,18.1
2023-01-20T03:09:48.053Z,17.6
2023-01-20T03:11:51.782Z,19
2023-01-20T03:13:58.043Z,17.4
2023-01-20T03:16:01.759Z,17.3
2023-01-20T03:18:05.410Z,17
2023-01-20T03:20:11.635Z,20
2023-01-20T03:22:15.504Z,19.2
2023-01-20T03:24:19.104Z,18.4
2023-01-20T03:26:25.321Z,18.4
2023-01-20T03:28:29.080Z,18.5
2023-01-20T03:30:32.914Z,18.5
2023-01-20T03:32:38.970Z,18.4
2023-01-20T03:34:42.597Z,18.7
2023-01-20T03:36:46.381Z,17.3
2023-01-20T03:40:56.110Z,16.9
2023-01-20T03:42:59.818Z,17.8
2023-01-20T03:45:06.077Z,18.6
2023-01-20T03:47:09.840Z,19
2023-01-20T03:49:13.583Z,20
2023-01-20T03:51:19.782Z,19.6
2023-01-20T03:53:23.528Z,17
2023-01-20T03:55:27.266Z,18.6
2023-01-20T03:57:33.562Z,19.7
2023-01-20T03:59:37.319Z,18.6
2023-01-20T04:01:41.224Z,20.7
2023-01-20T04:03:47.413Z,18.7
2023-01-20T04:05:51.106Z,18.6
2023-01-20T04:07:54.847Z,20
2023-01-20T04:10:01.109Z,19.4
2023-01-20T04:12:04.861Z,20.7
2023-01-20T04:14:08.467Z,20.2
2023-01-20T04:18:18.296Z,21.9
2023-01-20T04:26:35.742Z,18.1
2023-01-20T04:30:45.884Z,22.1
2023-01-20T04:34:55.705Z,18.4
2023-01-20T04:36:59.425Z,19.5
2023-01-20T04:41:09.254Z,21.7
2023-01-20T04:43:12.949Z,20.1
2023-01-20T04:45:17.072Z,23.5
2023-01-20T04:47:22.976Z,22.1
2023-01-20T04:49:26.664Z,23.5
2023-01-20T04:51:30.410Z,23
2023-01-20T04:53:36.659Z,20.6
2023-01-20T04:55:40.416Z,21.9
2023-01-20T05:03:57.520Z,23.1
2023-01-20T05:08:07.542Z,24.4
2023-01-20T05:10:13.163Z,23.1
2023-01-20T05:12:17.482Z,24.9
2023-01-20T05:14:21.339Z,25.3
2023-01-20T05:16:24.854Z,24.4
2023-01-20T05:23:38.618Z,22.9
2023-01-20T05:32:58.071Z,24.4
2023-01-20T05:35:01.819Z,20.6
2023-01-20T05:37:07.997Z,22
2023-01-20T05:39:11.680Z,22.7
2023-01-20T05:41:15.472Z,22.2
2023-01-20T05:50:14.392Z,22.1
2023-01-20T05:52:18.091Z,23.2
2023-01-20T05:54:21.782Z,25
2023-01-20T05:56:27.946Z,22.9
2023-01-20T05:58:31.705Z,22.7
2023-01-20T06:00:35.435Z,22.6
2023-01-20T06:02:41.691Z,22.8
2023-01-20T06:04:45.270Z,23.5
2023-01-20T06:06:49.020Z,22.6
2023-01-20T06:10:58.999Z,21.3
2023-01-20T06:13:02.705Z,23.4
2023-01-20T06:15:08.991Z,24.6
2023-01-20T06:17:12.747Z,24.9
2023-01-20T06:19:17.486Z,23.6
2023-01-20T06:21:23.745Z,22
2023-01-20T06:23:27.440Z,24.9
2023-01-20T06:25:31.163Z,24.1
2023-01-20T06:27:37.410Z,24.8
2023-01-20T06:29:41.182Z,22.3
2023-01-20T06:31:44.953Z,22
2023-01-20T06:33:51.041Z,23.1
2023-01-20T06:35:54.735Z,21
2023-01-20T06:37:58.439Z,23.9
2023-01-20T06:40:04.618Z,21.2
2023-01-20T06:42:08.319Z,21.5
2023-01-20T06:44:11.997Z,23
2023-01-20T06:46:18.345Z,20.9
2023-01-20T06:48:21.928Z,20.8
2023-01-20T06:50:25.654Z,21.6
2023-01-20T06:52:31.807Z,20.3
2023-01-20T06:54:35.512Z,25.8
2023-01-20T06:56:39.275Z,22.1
2023-01-20T06:58:45.526Z,23.1
2023-01-20T07:00:49.324Z,23
2023-01-20T07:02:52.993Z,21.5
2023-01-20T07:04:59.180Z,25.2
2023-01-20T07:07:02.831Z,19.2
2023-01-20T07:09:06.579Z,21.5
2023-01-20T07:11:12.839Z,18.3
2023-01-20T07:13:16.526Z,20.1
2023-01-20T07:15:20.265Z,19.8
2023-01-20T07:17:26.437Z,21.3
2023-01-20T07:19:30.204Z,21.5
2023-01-20T07:21:33.960Z,23
2023-01-20T07:25:43.882Z,22.6
2023-01-20T07:27:47.624Z,19.9
2023-01-20T07:29:53.917Z,22.6
2023-01-20T07:31:57.688Z,21.4
2023-01-20T07:36:07.568Z,19.7
2023-01-20T07:38:11.308Z,24.7
2023-01-20T07:40:14.960Z,22.2
2023-01-20T07:42:21.198Z,20.1
2023-01-20T07:46:28.406Z,20.7
2023-01-20T07:48:34.699Z,20.7
2023-01-20T07:50:38.429Z,19.7
2023-01-20T07:54:48.470Z,23.7
2023-01-20T07:56:52.185Z,22.2
2023-01-20T07:58:55.875Z,19.7
2023-01-20T08:01:02.268Z,22.3
2023-01-20T08:03:05.899Z,22.6
2023-01-20T08:05:09.667Z,21
2023-01-20T08:07:15.825Z,23.1
2023-01-20T08:09:19.553Z,21.4
2023-01-20T08:11:23.311Z,21.3
2023-01-20T08:13:29.575Z,21.2
2023-01-20T08:15:33.232Z,20.8
2023-01-20T08:17:36.967Z,19.5
2023-01-20T08:19:43.212Z,23.4
2023-01-20T08:21:46.974Z,21.2
2023-01-20T08:23:50.719Z,21.5
2023-01-20T08:25:56.995Z,21.2
2023-01-20T08:28:00.673Z,21.9
2023-01-20T08:30:04.390Z,22.8
2023-01-20T08:32:10.596Z,22.5
2023-01-20T08:41:27.353Z,22.1
2023-01-20T08:43:31.028Z,21.3
2023-01-20T08:45:34.760Z,20.9
2023-01-20T08:47:41.018Z,23.1
2023-01-20T08:49:44.654Z,22.2
2023-01-20T08:51:48.323Z,23.9
2023-01-20T08:53:54.615Z,24.1
2023-01-20T08:55:58.333Z,24.9
2023-01-20T08:58:01.992Z,25.1
2023-01-20T09:00:08.204Z,25
2023-01-20T09:02:11.919Z,21.4
2023-01-20T09:04:15.593Z,34
2023-01-20T09:06:21.817Z,27.2
2023-01-20T09:10:29.206Z,35.8
2023-01-20T09:14:39.144Z,24.4
2023-01-20T09:16:42.861Z,25.3
2023-01-20T09:18:49.105Z,25.3
2023-01-20T09:20:52.831Z,24.1
2023-01-20T09:25:02.739Z,28.6
2023-01-20T09:27:06.476Z,24.3
2023-01-20T09:29:10.380Z,24.9
2023-01-20T09:34:13.430Z,24.1
2023-01-20T09:36:15.351Z,25
2023-01-20T09:38:19.066Z,23.2
2023-01-20T09:40:25.270Z,25.6
2023-01-20T09:42:29.010Z,23.7
2023-01-20T09:44:32.756Z,25.3
2023-01-20T09:46:39.024Z,24.7
2023-01-20T09:48:42.789Z,26.8
2023-01-20T09:50:46.533Z,24.3
2023-01-20T09:58:02.218Z,24.8
2023-01-20T10:00:05.760Z,24.9
2023-01-20T10:06:19.367Z,24.9
2023-01-20T10:08:25.655Z,24.1
2023-01-20T10:10:29.389Z,25.3
2023-01-20T10:12:33.150Z,25.9
2023-01-20T10:14:39.387Z,24.7
2023-01-20T10:16:43.130Z,24.5
2023-01-20T10:20:52.985Z,24.6
2023-01-20T10:22:56.705Z,24.2
2023-01-20T10:25:00.422Z,24.9
2023-01-20T10:27:06.639Z,22.3
2023-01-20T10:29:10.268Z,26
2023-01-20T10:37:40.055Z,22.2
2023-01-20T10:41:50.661Z,22.2
2023-01-20T10:45:58.098Z,23.6
2023-01-20T10:48:01.745Z,21.6
2023-01-20T10:52:09.091Z,22.6
2023-01-20T10:56:19.682Z,21.3
2023-01-20T10:58:23.258Z,22.9
2023-01-20T11:00:26.949Z,24.3
2023-01-20T11:02:30.816Z,21.6
2023-01-20T11:04:34.448Z,21
2023-01-20T11:06:38.161Z,21.9
2023-01-20T11:10:48.728Z,23.1
2023-01-20T11:12:52.382Z,22.8
2023-01-20T11:16:59.832Z,22.4
2023-01-20T11:19:03.561Z,21.4
2023-01-20T11:23:14.114Z,21.8
2023-01-20T11:25:17.796Z,20.1
2023-01-20T11:27:21.563Z,20.8
2023-01-20T11:28:25.025Z,23.9
2023-01-20T11:30:28.780Z,21.6
2023-01-20T11:32:32.513Z,21.9
2023-01-20T11:34:36.226Z,22.2
2023-01-20T11:36:45.978Z,22.5
2023-01-20T11:38:46.874Z,24.5
2023-01-20T11:40:50.566Z,17.9
2023-01-20T11:42:54.298Z,23.5
2023-01-20T11:45:08.493Z,22.9
2023-01-20T11:47:01.783Z,24.4
2023-01-20T11:49:05.392Z,21.2
2023-01-20T11:51:12.113Z,23.3
2023-01-20T11:53:15.849Z,22.6
2023-01-20T11:55:19.771Z,23.5
2023-01-20T11:57:23.229Z,25.2
2023-01-20T11:59:26.903Z,23.5
2023-01-20T12:01:30.550Z,24.9
2023-01-20T12:03:34.301Z,21.1
2023-01-20T12:09:48.584Z,22.4
2023-01-20T12:15:59.777Z,23.4
2023-01-20T12:18:03.320Z,20.5
2023-01-20T12:20:10.093Z,21.7
2023-01-20T12:22:13.809Z,23.2
2023-01-20T12:24:17.441Z,18.1
2023-01-20T12:25:20.865Z,21.8
2023-01-20T12:27:24.601Z,18.8
2023-01-20T12:29:28.282Z,21.5
2023-01-20T12:31:32.054Z,21.2
2023-01-20T12:33:38.882Z,19.5
2023-01-20T12:35:42.453Z,20.4
2023-01-20T12:37:46.101Z,21.8
2023-01-20T12:39:49.751Z,16.8
2023-01-20T12:41:53.484Z,17.7
2023-01-20T12:46:00.866Z,17.3
2023-01-20T12:48:07.635Z,16.3
2023-01-20T12:50:11.349Z,15
2023-01-20T12:54:18.735Z,14.9
2023-01-20T13:00:29.929Z,14.4
2023-01-20T13:02:36.732Z,16
2023-01-20T13:04:40.437Z,17
2023-01-20T13:06:44.125Z,16.8
2023-01-20T13:08:47.865Z,12.2
2023-01-20T13:10:51.691Z,14.5
2023-01-20T13:14:59.109Z,17.3
2023-01-20T13:19:09.683Z,14.4
2023-01-20T13:21:13.359Z,15.8
2023-01-20T13:22:16.820Z,15
2023-01-20T13:24:20.553Z,13.8
2023-01-20T13:28:27.865Z,15
2023-01-20T13:30:34.898Z,17.2
2023-01-20T13:32:38.527Z,15.5
2023-01-20T13:34:42.225Z,14.4
2023-01-20T13:36:45.917Z,14.4
2023-01-20T13:38:49.645Z,14.3
2023-01-20T13:40:53.309Z,14.3
2023-01-20T13:42:57.075Z,14.6
2023-01-20T13:45:03.984Z,15
2023-01-20T13:47:07.727Z,13.7
2023-01-20T13:49:11.450Z,14.7
2023-01-20T13:51:15.129Z,13.8
2023-01-20T13:53:18.860Z,14.2
2023-01-20T13:55:22.502Z,15
2023-01-20T13:57:26.140Z,16.6
2023-01-20T13:59:32.946Z,14.9
2023-01-20T14:09:51.662Z,14.5
2023-01-20T14:11:55.426Z,14.4
2023-01-20T14:14:02.273Z,14.2
2023-01-20T14:20:32.150Z,14.4
2023-01-20T14:22:35.815Z,14.3
2023-01-20T14:24:39.564Z,13.8
2023-01-20T14:26:46.347Z,17.9
2023-01-20T14:28:50.132Z,18.3
2023-01-20T14:30:53.860Z,15.1
2023-01-20T14:32:57.504Z,16.4
2023-01-20T14:35:01.161Z,15.8
2023-01-20T14:37:04.778Z,17.6
2023-01-20T14:39:08.491Z,16.4
2023-01-20T14:43:19.014Z,15.1
2023-01-20T14:51:34.244Z,16.2
2023-01-20T14:55:44.736Z,48.1
2023-01-20T14:57:48.448Z,22.2
2023-01-20T14:59:52.128Z,20.2
2023-01-20T15:01:55.827Z,17.5
2023-01-20T15:03:59.554Z,28.2
2023-01-20T15:06:03.272Z,16.5
2023-01-20T15:08:06.917Z,18.6
2023-01-20T15:10:13.807Z,17.9
2023-01-20T15:12:17.499Z,20
2023-01-20T15:14:21.134Z,21.5
2023-01-20T15:15:24.558Z,19.9
2023-01-20T15:17:28.185Z,19.5
2023-01-20T15:19:31.885Z,18.8
2023-01-20T15:21:35.641Z,21.1
2023-01-20T15:25:46.197Z,22.8
2023-01-20T15:27:49.932Z,21.8
2023-01-20T15:29:53.660Z,20.6
2023-01-20T15:31:57.473Z,22.1
2023-01-20T15:34:01.074Z,22.3
2023-01-20T15:36:04.791Z,20.3
2023-01-20T15:38:11.507Z,22.4
2023-01-20T15:40:15.489Z,22.2
2023-01-20T15:42:18.976Z,21.4
2023-01-20T15:44:22.609Z,20.8
2023-01-20T15:50:33.726Z,22.4
2023-01-20T15:54:44.041Z,21.6
2023-01-20T15:58:51.457Z,21
2023-01-20T16:00:55.107Z,21
2023-01-20T16:02:58.899Z,21.8
2023-01-20T16:05:02.606Z,22.3
2023-01-20T16:09:13.155Z,24.6
2023-01-20T16:11:16.795Z,21.8
2023-01-20T16:12:20.171Z,23.6
2023-01-20T16:14:23.831Z,22.9
2023-01-20T16:16:29.699Z,22.5
2023-01-20T16:18:31.351Z,23.3
2023-01-20T16:20:39.680Z,24.8
2023-01-20T16:22:43.324Z,21.7
2023-01-20T16:24:46.937Z,23.6
2023-01-20T16:26:50.609Z,23.2
2023-01-20T16:28:54.288Z,23
2023-01-20T16:30:58.178Z,22
2023-01-20T16:33:01.780Z,23.4
2023-01-20T16:35:08.471Z,21.6
2023-01-20T16:37:12.137Z,23.1
2023-01-20T16:39:15.887Z,24.5
2023-01-20T16:41:19.751Z,21.3
2023-01-20T16:43:23.368Z,22.1
2023-01-20T16:45:27.089Z,22.6
2023-01-20T16:47:30.741Z,22.9
2023-01-20T16:49:37.590Z,23
2023-01-20T16:51:41.500Z,22.3
2023-01-20T16:53:45.075Z,21.4
2023-01-20T16:55:48.720Z,22.1
2023-01-20T16:57:52.467Z,23.4
2023-01-20T16:59:56.159Z,22.7
2023-01-20T17:01:59.871Z,21.8
2023-01-20T17:04:06.766Z,26.5
2023-01-20T17:06:10.465Z,20.7
2023-01-20T17:08:14.201Z,22.8
2023-01-20T17:09:17.511Z,23.7
2023-01-20T17:11:21.204Z,24.9
2023-01-20T17:13:24.948Z,20.9
2023-01-20T17:15:28.703Z,20.6
2023-01-20T17:19:39.442Z,25.5
2023-01-20T17:21:43.249Z,23.8
2023-01-20T17:23:46.932Z,21.9
2023-01-20T17:25:50.601Z,22.9
2023-01-20T17:27:54.283Z,22.7
2023-01-20T17:29:58.050Z,22.2
2023-01-20T17:34:08.686Z,24.3
2023-01-20T17:38:16.057Z,21.9
2023-01-20T17:40:19.753Z,23.7
2023-01-20T17:42:23.470Z,23.1
2023-01-20T17:44:27.162Z,24.9
2023-01-20T17:46:33.955Z,24.3
2023-01-20T17:48:37.740Z,25.2
2023-01-20T17:50:41.499Z,32
2023-01-20T17:52:45.265Z,24.7
2023-01-20T17:54:48.962Z,22.8
2023-01-20T17:56:52.611Z,26.5
2023-01-20T17:58:56.286Z,24.4
2023-01-20T18:01:03.235Z,25
2023-01-20T18:03:06.932Z,23.9
2023-01-20T18:05:10.713Z,26.8
2023-01-20T18:07:16.974Z,26.6
2023-01-20T18:09:20.748Z,26.4
2023-01-20T18:13:30.771Z,24.7
2023-01-20T18:32:56.455Z,24.7
2023-01-20T18:35:00.144Z,23.9
2023-01-20T18:37:03.890Z,24.9
2023-01-20T18:39:15.997Z,23.1
2023-01-20T18:41:19.657Z,25.1
2023-01-20T18:43:23.396Z,24.8
2023-01-20T18:59:14.926Z,21.1
2023-01-20T19:01:18.653Z,22.8
2023-01-20T19:03:22.335Z,24.5
2023-01-20T19:08:22.855Z,21.1
2023-01-20T19:10:26.584Z,24.8
2023-01-20T19:12:30.342Z,25.2
2023-01-20T19:14:36.613Z,27.7
2023-01-20T19:16:40.348Z,24.1
2023-01-20T19:20:50.370Z,27.1
2023-01-20T19:24:57.766Z,26.7
2023-01-20T19:29:07.786Z,24.7
2023-01-20T19:31:11.675Z,26.5
2023-01-20T19:40:16.408Z,22.9
2023-01-20T19:44:23.737Z,31.5
2023-01-20T19:48:39.479Z,30.9
2023-01-20T19:50:43.255Z,27.9
2023-01-20T20:12:22.317Z,21.2
2023-01-20T20:14:26.030Z,25.2
2023-01-20T20:16:29.766Z,24.7
2023-01-20T20:21:30.958Z,34.5
2023-01-20T20:23:34.676Z,25.3
2023-01-20T20:25:38.299Z,27.9
2023-01-20T20:27:44.583Z,29.1
2023-01-20T20:29:48.279Z,28.8
2023-01-20T20:31:51.986Z,29
2023-01-20T20:34:04.000Z,29.3
2023-01-20T20:36:07.627Z,27.2
2023-01-20T20:38:11.290Z,26.2
2023-01-20T20:47:16.005Z,5.3
2023-01-20T20:51:23.493Z,28.5
2023-01-20T21:13:03.444Z,28.9
2023-01-20T21:15:07.195Z,33.3
2023-01-20T21:17:10.899Z,33.9
2023-01-20T21:22:19.457Z,30.3
2023-01-20T21:24:23.170Z,38
2023-01-20T21:26:29.731Z,38.1
2023-01-20T21:28:33.161Z,35.1
2023-01-20T21:30:36.911Z,43.9
2023-01-20T21:34:46.905Z,36.1
2023-01-20T21:38:54.271Z,30.8
2023-01-20T21:45:13.849Z,32.2
2023-01-20T21:49:21.280Z,29.8
2023-01-20T21:51:33.316Z,29.1
2023-01-20T21:53:36.977Z,29.7
2023-01-20T21:55:40.597Z,34.3
2023-01-20T21:57:46.939Z,31.7
2023-01-20T21:59:50.565Z,32.4
2023-01-20T22:01:54.268Z,30.3
2023-01-20T22:17:53.748Z,32.9
2023-01-20T22:20:00.000Z,32.4
2023-01-20T22:24:07.343Z,35.3
2023-01-20T22:26:13.605Z,33.4
2023-01-20T22:28:17.361Z,35.3
2023-01-20T22:38:41.026Z,31.8
2023-01-20T22:40:44.774Z,34
2023-01-20T22:42:48.480Z,33.5
2023-01-20T22:44:54.719Z,33
2023-01-20T22:46:58.441Z,32.8
2023-01-20T22:49:02.221Z,30.9
2023-01-20T22:51:08.503Z,32.7
2023-01-20T22:53:12.158Z,33.2
2023-01-20T22:55:15.838Z,30.7
2023-01-20T22:57:22.089Z,31.9
2023-01-20T22:59:25.755Z,31.5
2023-01-20T23:01:29.609Z,30.9
2023-01-20T23:03:35.662Z,30.4
2023-01-20T23:05:40.944Z,31.4
2023-01-20T23:07:43.018Z,31
2023-01-20T23:16:02.985Z,29.2
2023-01-20T23:18:06.733Z,30.6
2023-01-20T23:20:10.440Z,29.6
2023-01-20T23:22:16.701Z,29.9
2023-01-20T23:24:20.315Z,30.2
2023-01-20T23:26:24.057Z,29.4
2023-01-20T23:28:30.345Z,29.6
2023-01-20T23:30:34.057Z,31.2
2023-01-20T23:32:37.777Z,29.9
2023-01-20T23:37:42.399Z,27.9
2023-01-20T23:39:46.138Z,27.7
2023-01-20T23:48:03.531Z,29.6
2023-01-20T23:52:13.507Z,29.7
2023-01-20T23:54:17.247Z,29.1
2023-01-20T23:59:26.234Z,27.6
